Time;durP1;ratioP1;P1;durP2;ratioP2;P2;SDS_P1;SDS_P2;PMS_P1;PMS_P2;Temp;Humidity;BMP_temperature;BMP_pressure;BME280_temperature;BME280_humidity;BME280_pressure;Samples;Min_cycle;Max_cycle;Signal;HPM_P1;HPM_P2
2020/12/10 00:02:27;;;;;;;;;;;;;;;5.48;100.00;92328.44;5013694;28;19987;-94
2020/12/10 00:04:53;;;;;;;;;;;;;;;5.52;100.00;92329.63;5013536;28;19925;-93
2020/12/10 00:07:21;;;;;;;;;;;;;;;5.56;100.00;92330.78;5013375;28;19944;-93
2020/12/10 00:09:48;;;;;;;;;;;;;;;5.54;100.00;92325.09;5013404;28;19922;-93
2020/12/10 00:12:15;;;;;;;;;;;;;;;5.58;100.00;92317.84;5013141;28;19925;-92
2020/12/10 00:14:41;;;;;;;;;;;;;;;5.62;100.00;92319.00;5013269;28;20301;-93
2020/12/10 00:17:08;;;;;;;;;;;;;;;5.64;100.00;92309.38;5013199;28;19928;-93
2020/12/10 00:19:34;;;;;;;;;;;;;;;5.73;100.00;92303.09;4988421;28;19928;-92
2020/12/10 00:22:00;;;;;;;;;;;;;;;5.78;100.00;92288.97;4992350;28;19925;-92
2020/12/10 00:24:26;;;;;;;;;;;;;;;5.84;100.00;92303.44;4993646;28;19977;-94
2020/12/10 00:26:53;;;;;;;;;;;;;;;5.92;100.00;92299.88;4993299;28;19921;-93
2020/12/10 00:29:20;;;;;;;;;;;;;;;6.03;100.00;92290.84;4993406;28;19925;-92
2020/12/10 00:31:46;;;;;;;;;;;;;;;6.10;100.00;92294.91;4993773;28;19921;-92
2020/12/10 00:34:13;;;;;;;;;;;;;;;6.18;100.00;92298.19;4993196;28;20296;-92
2020/12/10 00:36:39;;;;;;;;;;;;;;;6.23;100.00;92304.25;4993301;28;19922;-94
2020/12/10 00:39:05;;;;;;;;;;;;;;;6.33;100.00;92308.91;4993367;28;20655;-92
2020/12/10 00:41:32;;;;;;;;;;;;;;;6.43;100.00;92305.13;4993228;28;19944;-93
2020/12/10 00:43:58;;;;;;;;;;;;;;;6.50;100.00;92298.22;4993253;28;20291;-92
2020/12/10 00:46:25;;;;;;;;;;;;;;;6.53;100.00;92305.47;4993059;28;19926;-93
2020/12/10 00:48:51;;;;;;;;;;;;;;;6.60;100.00;92311.28;4992971;28;19921;-93
2020/12/10 00:51:17;;;;;;;;;;;;;;;6.71;100.00;92297.06;4992780;28;19932;-93
2020/12/10 00:53:43;;;;;;;;;;;;;;;6.78;100.00;92297.81;4992045;28;19928;-93
2020/12/10 00:56:09;;;;;;;;;;;;;;;6.85;100.00;92296.97;4993038;28;19973;-92
2020/12/10 00:58:35;;;;;;;;;;;;;;;6.95;100.00;92300.59;4992814;28;19925;-93
2020/12/10 01:01:02;;;;;;;;;;;;;;;7.03;100.00;92298.78;4992693;28;20384;-92
2020/12/10 01:03:29;;;;;;;;;;;;;;;7.09;100.00;92288.50;4992592;28;19967;-91
2020/12/10 01:05:55;;;;;;;;;;;;;;;7.20;100.00;92286.25;4993169;28;19973;-92
2020/12/10 01:08:22;;;;;;;;;;;;;;;7.27;100.00;92292.06;4992524;28;19971;-92
2020/12/10 01:10:48;;;;;;;;;;;;;;;7.34;100.00;92295.34;4992812;28;19965;-92
2020/12/10 01:13:15;;;;;;;;;;;;;;;7.32;100.00;92289.66;4992408;28;19984;-93
2020/12/10 01:15:41;;;;;;;;;;;;;;;7.39;100.00;92306.69;4992408;28;19965;-91
2020/12/10 01:18:07;;;;;;;;;;;;;;;7.27;100.00;92294.63;4992497;28;19968;-91
2020/12/10 01:20:34;;;;;;;;;;;;;;;7.26;100.00;92289.75;4992285;28;19969;-92
2020/12/10 01:23:00;;;;;;;;;;;;;;;7.26;100.00;92289.75;4992426;28;19922;-92
2020/12/10 01:25:26;;;;;;;;;;;;;;;7.27;100.00;92291.31;4992318;28;19927;-92
2020/12/10 01:27:53;;;;;;;;;;;;;;;7.34;100.00;92274.13;4992302;28;19971;-92
2020/12/10 01:30:19;;;;;;;;;;;;;;;7.37;100.00;92291.59;4991527;28;19976;-92
2020/12/10 01:32:45;;;;;;;;;;;;;;;7.44;100.00;92286.41;4991898;28;19983;-92
2020/12/10 01:35:12;;;;;;;;;;;;;;;7.46;100.00;92276.75;4992351;28;20355;-92
2020/12/10 01:37:39;;;;;;;;;;;;;;;7.48;100.00;92272.22;4992349;28;19944;-93
2020/12/10 01:40:05;;;;;;;;;;;;;;;7.55;100.00;92269.59;4992132;28;19932;-91
2020/12/10 01:42:31;;;;;;;;;;;;;;;7.59;100.00;92278.41;4992205;28;20368;-91
2020/12/10 01:44:57;;;;;;;;;;;;;;;7.68;100.00;92268.66;4992042;28;19969;-94
2020/12/10 01:47:25;;;;;;;;;;;;;;;7.77;100.00;92258.91;4991795;28;19977;-93
2020/12/10 01:49:51;;;;;;;;;;;;;;;7.74;100.00;92262.69;4992357;28;19931;-90
2020/12/10 01:52:17;;;;;;;;;;;;;;;7.75;100.00;92256.56;4986983;28;19928;-91
2020/12/10 01:54:45;;;;;;;;;;;;;;;7.81;100.00;92263.38;4992076;28;19928;-93
2020/12/10 01:57:11;;;;;;;;;;;;;;;7.88;100.00;92255.63;4991352;28;19921;-93
2020/12/10 01:59:37;;;;;;;;;;;;;;;7.94;100.00;92246.31;4992408;28;19922;-91
2020/12/10 02:02:03;;;;;;;;;;;;;;;7.95;100.00;92238.41;4991937;28;19969;-92
2020/12/10 02:04:30;;;;;;;;;;;;;;;7.95;100.00;92243.53;4992546;28;19965;-89
2020/12/10 02:06:57;;;;;;;;;;;;;;;7.89;100.00;92252.06;4992398;28;19925;-90
2020/12/10 02:09:23;;;;;;;;;;;;;;;7.96;100.00;92257.13;4993529;28;20292;-89
2020/12/10 02:11:50;;;;;;;;;;;;;;;7.99;100.00;92249.00;4992764;28;19928;-92
2020/12/10 02:14:16;;;;;;;;;;;;;;;8.06;100.00;92265.03;4992661;28;20434;-94
2020/12/10 02:16:43;;;;;;;;;;;;;;;8.10;100.00;92258.47;4992487;28;19953;-89
2020/12/10 02:19:09;;;;;;;;;;;;;;;8.13;100.00;92259.81;4997955;28;19964;-91
2020/12/10 02:21:35;;;;;;;;;;;;;;;8.18;100.00;92254.84;5012280;28;19969;-90
2020/12/10 02:24:02;;;;;;;;;;;;;;;8.24;100.00;92253.19;5013115;28;19921;-94
2020/12/10 02:26:28;;;;;;;;;;;;;;;8.29;100.00;92248.22;5011351;28;19927;-95
2020/12/10 02:28:58;;;;;;;;;;;;;;;8.33;100.00;92259.53;5011398;28;19996;-95
2020/12/10 02:31:24;;;;;;;;;;;;;;;8.35;100.00;92262.69;5011358;28;19932;-94
2020/12/10 02:33:50;;;;;;;;;;;;;;;8.36;100.00;92255.75;5011680;28;20390;-95
2020/12/10 02:36:17;;;;;;;;;;;;;;;8.42;100.00;92244.66;5012144;28;20272;-96
2020/12/10 02:38:43;;;;;;;;;;;;;;;8.37;100.00;92242.75;5011391;28;19927;-96
2020/12/10 02:41:13;;;;;;;;;;;;;;;8.37;100.00;92250.44;5011401;28;19973;-96
2020/12/10 02:43:40;;;;;;;;;;;;;;;8.40;100.00;92229.53;5011306;28;19921;-96
2020/12/10 02:46:06;;;;;;;;;;;;;;;8.39;100.00;92224.63;5013546;28;19977;-95
2020/12/10 02:48:32;;;;;;;;;;;;;;;8.28;100.00;92216.72;5015019;28;19968;-94
2020/12/10 02:51:00;;;;;;;;;;;;;;;8.21;100.00;92208.38;5014901;28;19921;-95
2020/12/10 02:53:27;;;;;;;;;;;;;;;8.19;100.00;92207.78;5014773;28;19943;-94
2020/12/10 02:55:53;;;;;;;;;;;;;;;8.18;100.00;92206.22;5014746;28;20315;-95
2020/12/10 02:58:20;;;;;;;;;;;;;;;8.19;100.00;92194.22;5014647;28;20340;-95
2020/12/10 03:00:46;;;;;;;;;;;;;;;8.19;100.00;92201.91;5014818;28;19961;-95
2020/12/10 03:03:12;;;;;;;;;;;;;;;8.18;100.00;92208.78;5014841;28;19971;-96
2020/12/10 03:05:38;;;;;;;;;;;;;;;8.13;100.00;92214.56;5014350;28;19944;-95
2020/12/10 03:08:05;;;;;;;;;;;;;;;8.20;100.00;92203.47;5014568;28;20307;-96
2020/12/10 03:10:31;;;;;;;;;;;;;;;8.21;100.00;92202.47;5014574;28;19955;-96
2020/12/10 03:12:57;;;;;;;;;;;;;;;8.23;100.00;92201.25;5014510;28;20387;-95
2020/12/10 03:15:24;;;;;;;;;;;;;;;8.18;100.00;92221.56;5014313;28;19960;-95
2020/12/10 03:17:50;;;;;;;;;;;;;;;8.18;100.00;92216.47;5014505;28;19968;-94
2020/12/10 03:20:16;;;;;;;;;;;;;;;8.16;100.00;92210.78;5014442;28;20329;-94
2020/12/10 03:22:43;;;;;;;;;;;;;;;8.15;100.00;92191.34;5014376;28;19922;-96
2020/12/10 03:25:09;;;;;;;;;;;;;;;8.16;100.00;92188.53;5014265;28;19922;-94
2020/12/10 03:27:35;;;;;;;;;;;;;;;8.19;100.00;92200.09;5014060;28;19973;-94
2020/12/10 03:30:01;;;;;;;;;;;;;;;8.25;100.00;92208.69;5014135;28;19928;-94
2020/12/10 03:32:28;;;;;;;;;;;;;;;8.26;100.00;92207.69;5014072;28;19964;-94
2020/12/10 03:34:55;;;;;;;;;;;;;;;8.28;100.00;92210.81;5014084;28;19921;-95
2020/12/10 03:37:21;;;;;;;;;;;;;;;8.30;100.00;92211.38;5014078;28;20364;-93
2020/12/10 03:39:47;;;;;;;;;;;;;;;8.34;100.00;92211.72;5013943;28;19928;-94
2020/12/10 03:42:13;;;;;;;;;;;;;;;8.37;100.00;92206.13;5013872;28;19932;-93
2020/12/10 03:44:39;;;;;;;;;;;;;;;8.32;100.00;92209.38;5014020;28;19975;-93
2020/12/10 03:47:05;;;;;;;;;;;;;;;8.34;100.00;92216.84;5013802;28;20403;-94
2020/12/10 03:49:32;;;;;;;;;;;;;;;8.36;100.00;92217.38;5013867;28;19925;-94
2020/12/10 03:51:59;;;;;;;;;;;;;;;8.33;100.00;92226.28;5013730;28;20312;-94
2020/12/10 03:54:25;;;;;;;;;;;;;;;8.31;100.00;92241.06;5014026;28;20008;-94
2020/12/10 03:56:51;;;;;;;;;;;;;;;8.34;100.00;92225.28;5014224;28;20380;-94
2020/12/10 03:59:17;;;;;;;;;;;;;;;8.34;100.00;92216.84;5014034;28;19927;-93
2020/12/10 04:01:43;;;;;;;;;;;;;;;8.29;100.00;92218.25;5014482;28;19964;-93
2020/12/10 04:04:09;;;;;;;;;;;;;;;8.29;100.00;92212.38;5016154;28;19921;-90
2020/12/10 04:06:42;;;;;;;;;;;;;;;8.34;100.00;92224.50;5016311;28;19928;-92
2020/12/10 04:09:08;;;;;;;;;;;;;;;8.35;100.00;92241.41;5015410;28;20396;-93
2020/12/10 04:11:35;;;;;;;;;;;;;;;8.27;100.00;92234.84;5015687;28;19922;-91
2020/12/10 04:14:01;;;;;;;;;;;;;;;8.28;100.00;92237.19;5014910;28;19921;-92
2020/12/10 04:16:28;;;;;;;;;;;;;;;8.30;100.00;92244.63;5014753;28;19974;-90
2020/12/10 04:18:54;;;;;;;;;;;;;;;8.27;100.00;92248.41;5015963;28;19972;-89
2020/12/10 04:21:20;;;;;;;;;;;;;;;8.23;100.00;92234.50;5016119;28;19928;-89
2020/12/10 04:23:47;;;;;;;;;;;;;;;8.26;100.00;92246.88;5014136;28;19975;-90
2020/12/10 04:26:14;;;;;;;;;;;;;;;8.27;100.00;92243.31;5015733;28;19979;-89
2020/12/10 04:28:40;;;;;;;;;;;;;;;8.30;100.00;92242.09;5016080;28;19928;-91
2020/12/10 04:31:06;;;;;;;;;;;;;;;8.28;100.00;92242.28;5014978;28;19926;-92
2020/12/10 04:33:32;;;;;;;;;;;;;;;8.34;100.00;92237.31;5015159;28;20015;-91
2020/12/10 04:35:59;;;;;;;;;;;;;;;8.38;100.00;92223.06;5014737;28;20434;-96
2020/12/10 04:38:25;;;;;;;;;;;;;;;8.36;100.00;92218.16;5013144;28;19927;-91
2020/12/10 04:40:52;;;;;;;;;;;;;;;8.37;100.00;92221.50;5013602;28;19983;-87
2020/12/10 04:43:26;;;;;;;;;;;;;;;8.37;100.00;92218.94;5013420;28;20371;-91
2020/12/10 04:45:55;;;;;;;;;;;;;;;8.33;100.00;92216.03;5013470;28;20395;-92
2020/12/10 04:48:22;;;;;;;;;;;;;;;8.34;100.00;92214.28;5013305;28;19960;-92
2020/12/10 04:50:48;;;;;;;;;;;;;;;8.37;100.00;92208.69;5013714;28;19928;-89
2020/12/10 04:53:15;;;;;;;;;;;;;;;8.41;100.00;92217.50;5013124;28;19967;-94
2020/12/10 04:55:41;;;;;;;;;;;;;;;8.41;100.00;92214.94;5013390;28;19922;-91
2020/12/10 04:58:10;;;;;;;;;;;;;;;8.37;100.00;92212.06;5013409;28;19928;-90
2020/12/10 05:00:36;;;;;;;;;;;;;;;8.33;100.00;92208.38;5012411;28;20376;-93
2020/12/10 05:03:02;;;;;;;;;;;;;;;8.34;100.00;92216.84;5012634;28;20301;-90
2020/12/10 05:05:29;;;;;;;;;;;;;;;8.32;100.00;92221.41;5012831;28;19992;-89
2020/12/10 05:07:57;;;;;;;;;;;;;;;8.33;100.00;92225.50;5012066;28;19967;-90
2020/12/10 05:10:23;;;;;;;;;;;;;;;8.30;100.00;92224.16;5012635;28;20321;-92
2020/12/10 05:12:49;;;;;;;;;;;;;;;8.28;100.00;92231.28;5012609;28;19921;-90
2020/12/10 05:15:18;;;;;;;;;;;;;;;8.29;100.00;92240.53;5012703;28;19928;-91
2020/12/10 05:17:44;;;;;;;;;;;;;;;8.32;100.00;92237.50;5012193;28;19925;-91
2020/12/10 05:20:10;;;;;;;;;;;;;;;8.36;100.00;92246.31;5012485;28;19921;-91
2020/12/10 05:22:43;;;;;;;;;;;;;;;8.28;99.81;92252.53;5012882;28;19921;-90
2020/12/10 05:25:09;;;;;;;;;;;;;;;8.34;99.95;92250.09;5012508;28;19928;-90
2020/12/10 05:27:35;;;;;;;;;;;;;;;8.40;99.57;92249.22;5012504;28;19972;-90
2020/12/10 05:30:03;;;;;;;;;;;;;;;8.46;98.68;92250.13;5012141;28;19965;-91
2020/12/10 05:32:41;;;;;;;;;;;;;;;8.48;98.62;92266.81;5012166;28;19969;-91
2020/12/10 05:35:18;;;;;;;;;;;;;;;8.54;99.21;92254.94;5005901;28;19949;-90
2020/12/10 05:37:44;;;;;;;;;;;;;;;8.49;98.88;92258.16;5012658;28;20364;-91
2020/12/10 05:40:10;;;;;;;;;;;;;;;8.53;99.25;92263.63;5011954;28;19925;-92
2020/12/10 05:42:38;;;;;;;;;;;;;;;8.50;98.85;92253.78;5011918;28;19975;-92
2020/12/10 05:45:09;;;;;;;;;;;;;;;8.57;98.97;92263.97;5012055;28;19944;-91
2020/12/10 05:47:41;;;;;;;;;;;;;;;8.55;98.79;92264.19;5012140;28;19984;-91
2020/12/10 05:50:07;;;;;;;;;;;;;;;8.57;98.90;92266.53;5011857;28;19952;-91
2020/12/10 05:52:36;;;;;;;;;;;;;;;8.59;98.77;92265.31;5011805;28;20354;-92
2020/12/10 05:55:03;;;;;;;;;;;;;;;8.64;98.81;92269.75;5011666;28;19928;-92
2020/12/10 05:57:29;;;;;;;;;;;;;;;8.66;98.72;92262.66;5011496;28;20268;-91
2020/12/10 05:59:55;;;;;;;;;;;;;;;8.61;98.98;92278.66;5012062;28;19964;-92
2020/12/10 06:02:22;;;;;;;;;;;;;;;8.63;98.84;92278.44;5012050;28;19921;-92
2020/12/10 06:04:52;;;;;;;;;;;;;;;8.62;99.38;92275.13;5012278;28;19953;-91
2020/12/10 06:07:18;;;;;;;;;;;;;;;8.65;99.20;92281.53;5012170;28;20299;-90
2020/12/10 06:09:44;;;;;;;;;;;;;;;8.68;98.98;92286.25;5012273;28;19921;-92
2020/12/10 06:12:10;;;;;;;;;;;;;;;8.71;98.74;92295.25;5008108;28;19945;-89
2020/12/10 06:14:50;;;;;;;;;;;;;;;8.68;98.93;92310.06;4992701;28;19976;-91
2020/12/10 06:17:16;;;;;;;;;;;;;;;8.68;99.02;92302.41;4992319;28;20376;-91
2020/12/10 06:19:42;;;;;;;;;;;;;;;8.69;98.99;92303.16;5001330;28;19968;-89
2020/12/10 06:22:33;;;;;;;;;;;;;;;8.66;98.26;92301.06;5016197;28;20306;-90
2020/12/10 06:25:00;;;;;;;;;;;;;;;8.72;97.81;92305.28;4989275;28;19965;-91
2020/12/10 06:27:27;;;;;;;;;;;;;;;8.77;98.25;92310.53;5015852;28;19921;-91
2020/12/10 06:30:16;;;;;;;;;;;;;;;8.80;97.48;92307.50;5015757;28;20439;-92
2020/12/10 06:32:44;;;;;;;;;;;;;;;8.84;97.86;92310.41;5016036;28;20280;-92
2020/12/10 06:35:27;;;;;;;;;;;;;;;8.88;97.24;92313.34;5015471;28;19925;-92
2020/12/10 06:37:53;;;;;;;;;;;;;;;8.84;97.52;92310.41;5015826;28;19921;-89
2020/12/10 06:40:36;;;;;;;;;;;;;;;8.84;97.76;92312.22;5015510;28;19956;-90
2020/12/10 06:43:03;;;;;;;;;;;;;;;8.83;97.07;92311.41;5007863;28;19921;-90
2020/12/10 06:45:31;;;;;;;;;;;;;;;8.77;96.90;92317.41;5015755;28;19922;-91
2020/12/10 06:47:57;;;;;;;;;;;;;;;8.79;96.73;92315.41;5015790;28;19928;-90
2020/12/10 06:50:24;;;;;;;;;;;;;;;8.78;97.16;92317.22;5017288;28;19927;-91
2020/12/10 06:53:09;;;;;;;;;;;;;;;8.84;96.38;92315.53;5017626;28;19931;-90
2020/12/10 06:55:56;;;;;;;;;;;;;;;8.86;96.47;92315.31;5017094;28;20295;-90
2020/12/10 06:58:44;;;;;;;;;;;;;;;8.86;96.59;92316.09;5016225;28;19933;-91
2020/12/10 07:01:18;;;;;;;;;;;;;;;8.84;96.61;92307.84;5017774;28;19929;-92
2020/12/10 07:03:45;;;;;;;;;;;;;;;8.81;96.06;92298.06;5018220;28;19952;-92
2020/12/10 07:06:18;;;;;;;;;;;;;;;8.77;96.39;92294.38;4978501;28;20016;-89
2020/12/10 07:08:58;;;;;;;;;;;;;;;8.75;96.74;92293.81;4978194;28;20431;-93
2020/12/10 07:11:31;;;;;;;;;;;;;;;8.79;96.42;92293.16;4978754;28;19932;-91
2020/12/10 07:13:57;;;;;;;;;;;;;;;8.86;96.59;92299.94;4978322;28;19933;-91
2020/12/10 07:16:28;;;;;;;;;;;;;;;8.88;96.40;92303.09;4978290;28;19957;-92
2020/12/10 07:18:54;;;;;;;;;;;;;;;8.89;96.33;92307.97;4978462;28;19932;-93
2020/12/10 07:21:22;;;;;;;;;;;;;;;8.94;96.50;92302.97;4978519;28;19922;-91
2020/12/10 07:23:48;;;;;;;;;;;;;;;8.90;96.48;92303.63;4976362;28;19922;-92
2020/12/10 07:26:14;;;;;;;;;;;;;;;8.94;96.23;92302.97;4975456;28;19994;-91
2020/12/10 07:28:41;;;;;;;;;;;;;;;8.94;96.13;92302.19;4976262;28;20422;-91
2020/12/10 07:31:13;;;;;;;;;;;;;;;8.98;96.36;92302.53;4975813;28;19922;-91
2020/12/10 07:33:39;;;;;;;;;;;;;;;8.96;96.34;92297.63;4977222;28;19929;-92
2020/12/10 07:36:06;;;;;;;;;;;;;;;9.01;96.54;92299.50;4976541;28;20016;-90
2020/12/10 07:38:33;;;;;;;;;;;;;;;9.07;96.47;92296.84;4977608;28;19953;-90
2020/12/10 07:40:59;;;;;;;;;;;;;;;9.12;96.57;92295.41;4969121;28;19928;-91
2020/12/10 07:43:26;;;;;;;;;;;;;;;9.15;96.49;92303.44;4977348;28;20009;-91
2020/12/10 07:45:54;;;;;;;;;;;;;;;9.18;96.58;92317.56;4976848;28;20293;-91
2020/12/10 07:48:20;;;;;;;;;;;;;;;9.17;95.79;92313.47;4976998;28;19926;-91
2020/12/10 07:50:47;;;;;;;;;;;;;;;9.05;96.06;92316.00;4976866;28;19928;-91
2020/12/10 07:53:13;;;;;;;;;;;;;;;9.02;96.58;92313.91;4975523;28;19930;-92
2020/12/10 07:55:43;;;;;;;;;;;;;;;9.10;96.43;92318.69;4975256;28;20008;-92
2020/12/10 07:58:18;;;;;;;;;;;;;;;9.11;96.03;92306.66;4974604;28;19976;-92
2020/12/10 08:00:46;;;;;;;;;;;;;;;9.12;96.32;92318.47;4976432;28;20521;-91
2020/12/10 08:03:21;;;;;;;;;;;;;;;9.00;96.26;92316.69;4976899;28;19925;-91
2020/12/10 08:05:57;;;;;;;;;;;;;;;9.07;96.66;92314.78;4976904;28;19993;-93
2020/12/10 08:08:29;;;;;;;;;;;;;;;9.14;96.54;92316.44;4980742;28;19921;-92
2020/12/10 08:11:05;;;;;;;;;;;;;;;9.16;96.21;92314.47;4993841;28;19922;-92
2020/12/10 08:13:31;;;;;;;;;;;;;;;9.17;95.79;92319.34;4981827;28;19922;-91
2020/12/10 08:16:05;;;;;;;;;;;;;;;9.25;96.04;92318.22;4973171;28;19926;-91
2020/12/10 08:18:32;;;;;;;;;;;;;;;9.32;95.92;92313.78;4973956;28;19925;-91
2020/12/10 08:20:59;;;;;;;;;;;;;;;9.39;95.73;92312.91;4976537;28;19922;-91
2020/12/10 08:23:26;;;;;;;;;;;;;;;9.42;94.24;92310.66;4975386;28;19929;-92
2020/12/10 08:26:06;;;;;;;;;;;;;;;9.49;94.04;92313.88;4975479;28;20408;-91
2020/12/10 08:28:33;;;;;;;;;;;;;;;9.59;93.89;92317.66;4975377;28;20254;-92
2020/12/10 08:30:59;;;;;;;;;;;;;;;9.66;93.82;92323.44;4963688;28;20395;-91
2020/12/10 08:33:34;;;;;;;;;;;;;;;9.73;93.54;92323.34;4970617;28;19926;-92
2020/12/10 08:36:00;;;;;;;;;;;;;;;9.81;93.60;92324.78;4972565;28;19926;-92
2020/12/10 08:38:26;;;;;;;;;;;;;;;9.92;93.18;92315.47;4968911;28;19926;-91
2020/12/10 08:40:54;;;;;;;;;;;;;;;10.04;92.20;92313.66;4969628;28;19922;-92
2020/12/10 08:43:21;;;;;;;;;;;;;;;10.12;89.51;92312.50;4975679;28;19922;-92
2020/12/10 08:45:47;;;;;;;;;;;;;;;10.14;89.17;92310.50;4975924;28;19922;-91
2020/12/10 08:48:15;;;;;;;;;;;;;;;10.07;89.97;92302.94;4975812;28;20325;-93
2020/12/10 08:50:52;;;;;;;;;;;;;;;10.01;91.39;92296.16;4975766;28;19929;-92
2020/12/10 08:53:18;;;;;;;;;;;;;;;10.12;90.10;92307.38;4974015;28;20340;-91
2020/12/10 08:55:46;;;;;;;;;;;;;;;10.17;89.42;92304.91;4973905;28;20016;-91
2020/12/10 08:58:16;;;;;;;;;;;;;;;10.26;89.76;92295.84;4973741;28;20270;-91
2020/12/10 09:00:43;;;;;;;;;;;;;;;10.32;89.38;92291.56;4970065;28;20395;-92
2020/12/10 09:03:09;;;;;;;;;;;;;;;10.29;89.53;92294.59;4966806;28;20430;-91
2020/12/10 09:05:35;;;;;;;;;;;;;;;10.21;88.68;92280.34;4974286;28;20368;-90
2020/12/10 09:08:02;;;;;;;;;;;;;;;10.21;88.96;92274.44;4966648;28;19926;-91
2020/12/10 09:10:29;;;;;;;;;;;;;;;10.27;89.77;92276.06;4973366;28;19928;-91
2020/12/10 09:12:56;;;;;;;;;;;;;;;10.19;89.00;92272.09;4981711;28;20300;-90
2020/12/10 09:15:23;;;;;;;;;;;;;;;10.15;89.36;92269.19;4992579;28;19957;-91
2020/12/10 09:17:50;;;;;;;;;;;;;;;10.11;89.51;92264.78;4991786;28;20391;-91
2020/12/10 09:20:16;;;;;;;;;;;;;;;10.10;90.23;92256.28;4973465;28;19972;-92
2020/12/10 09:22:42;;;;;;;;;;;;;;;10.15;89.28;92260.75;4973586;28;19929;-92
2020/12/10 09:25:10;;;;;;;;;;;;;;;10.11;88.33;92263.00;4973258;28;19937;-92
2020/12/10 09:27:36;;;;;;;;;;;;;;;10.06;88.99;92264.69;4972971;28;19922;-92
2020/12/10 09:30:04;;;;;;;;;;;;;;;10.14;89.07;92269.44;4973260;28;19946;-91
2020/12/10 09:32:32;;;;;;;;;;;;;;;10.14;89.62;92274.59;4973211;28;20292;-91
2020/12/10 09:34:58;;;;;;;;;;;;;;;10.14;89.71;92279.72;4973481;28;19922;-92
2020/12/10 09:37:25;;;;;;;;;;;;;;;10.02;89.07;92282.31;4973313;28;19922;-91
2020/12/10 09:42:38;;;;;;;;;;;;;;;9.66;90.47;92286.75;4972911;28;19929;-90
2020/12/10 09:45:04;;;;;;;;;;;;;;;9.67;91.59;92286.53;4973321;28;19929;-92
2020/12/10 09:47:30;;;;;;;;;;;;;;;9.51;91.96;92280.34;4976066;28;20364;-91
2020/12/10 09:49:56;;;;;;;;;;;;;;;9.46;93.40;92283.59;4976122;28;20258;-91
2020/12/10 09:52:23;;;;;;;;;;;;;;;9.34;93.65;92281.03;4977037;28;19953;-92
2020/12/10 09:55:24;;;;;;;;;;;;;;;9.22;94.11;92285.38;4972831;28;19922;-90
2020/12/10 09:57:51;;;;;;;;;;;;;;;9.14;94.93;92278.81;4973659;28;20289;-93
2020/12/10 10:00:18;;;;;;;;;;;;;;;9.17;94.95;92282.72;4973313;28;19961;-91
2020/12/10 10:02:44;;;;;;;;;;;;;;;9.04;95.71;92281.94;4974904;28;20365;-91
2020/12/10 10:05:10;;;;;;;;;;;;;;;9.08;96.20;92282.28;4975350;28;20349;-91
2020/12/10 10:07:39;;;;;;;;;;;;;;;9.07;95.86;92288.38;4973542;28;19932;-92
2020/12/10 10:10:05;;;;;;;;;;;;;;;8.98;96.47;92280.25;4973003;28;19948;-91
2020/12/10 10:12:31;;;;;;;;;;;;;;;8.95;96.65;92271.22;4972731;28;19922;-91
2020/12/10 10:14:58;;;;;;;;;;;;;;;9.00;97.41;92272.34;4972928;28;20388;-92
2020/12/10 10:17:25;;;;;;;;;;;;;;;8.95;97.18;92268.66;4973357;28;19922;-93
2020/12/10 10:19:51;;;;;;;;;;;;;;;8.89;97.39;92261.09;4972339;28;20380;-92
2020/12/10 10:22:18;;;;;;;;;;;;;;;8.97;97.72;92262.56;4972634;28;20381;-92
2020/12/10 10:24:44;;;;;;;;;;;;;;;8.95;97.55;92263.53;4972635;28;20402;-92
2020/12/10 10:27:11;;;;;;;;;;;;;;;8.95;97.73;92266.09;4972499;28;19922;-93
2020/12/10 10:29:37;;;;;;;;;;;;;;;8.98;98.12;92256.44;4972402;28;19933;-93
2020/12/10 10:32:06;;;;;;;;;;;;;;;8.87;98.44;92253.63;4972405;28;19922;-93
2020/12/10 10:34:32;;;;;;;;;;;;;;;8.88;98.72;92254.44;4972324;28;20365;-93
2020/12/10 10:36:58;;;;;;;;;;;;;;;8.89;98.71;92253.44;4972315;28;19928;-92
2020/12/10 10:39:24;;;;;;;;;;;;;;;8.93;98.66;92259.63;4972360;28;19980;-94
2020/12/10 10:41:50;;;;;;;;;;;;;;;8.94;98.63;92254.31;4972231;28;19993;-93
2020/12/10 10:44:17;;;;;;;;;;;;;;;8.98;98.57;92249.50;4972370;28;19928;-93
2020/12/10 10:46:43;;;;;;;;;;;;;;;8.94;98.99;92249.19;4972275;28;20399;-93
2020/12/10 10:49:12;;;;;;;;;;;;;;;8.99;98.92;92245.19;4972683;28;19928;-92
2020/12/10 10:51:38;;;;;;;;;;;;;;;9.00;98.80;92241.59;4972418;28;19993;-92
2020/12/10 10:54:05;;;;;;;;;;;;;;;9.02;98.21;92232.69;4972266;28;19933;-92
2020/12/10 10:56:31;;;;;;;;;;;;;;;9.00;97.93;92237.28;4972164;28;20292;-91
2020/12/10 10:58:57;;;;;;;;;;;;;;;9.02;97.84;92230.13;4972091;28;20352;-92
2020/12/10 11:01:27;;;;;;;;;;;;;;;9.01;97.65;92226.03;4968542;28;19922;-92
2020/12/10 11:03:53;;;;;;;;;;;;;;;9.01;96.80;92220.09;4953412;28;20420;-92
2020/12/10 11:06:20;;;;;;;;;;;;;;;9.11;97.63;92219.56;4973191;28;19933;-92
2020/12/10 11:08:46;;;;;;;;;;;;;;;9.17;97.72;92223.78;4975979;28;19953;-93
2020/12/10 11:11:12;;;;;;;;;;;;;;;9.26;97.82;92226.78;4975573;28;19926;-92
2020/12/10 11:13:39;;;;;;;;;;;;;;;9.38;97.52;92222.41;4975482;28;19928;-93
2020/12/10 11:16:05;;;;;;;;;;;;;;;9.45;97.59;92219.72;4975403;28;19922;-91
2020/12/10 11:18:31;;;;;;;;;;;;;;;9.55;96.53;92217.34;4975532;28;19932;-92
2020/12/10 11:20:57;;;;;;;;;;;;;;;9.63;95.64;92213.66;4975547;28;19922;-92
2020/12/10 11:23:24;;;;;;;;;;;;;;;9.74;95.78;92210.28;4975254;28;19922;-92
2020/12/10 11:25:51;;;;;;;;;;;;;;;9.86;95.35;92212.00;4975300;28;19961;-92
2020/12/10 11:28:17;;;;;;;;;;;;;;;9.97;94.82;92212.97;4975336;28;20388;-92
2020/12/10 11:30:43;;;;;;;;;;;;;;;10.06;93.95;92206.44;4975302;28;19928;-92
2020/12/10 11:33:09;;;;;;;;;;;;;;;10.10;94.17;92204.97;4975267;28;19977;-93
2020/12/10 11:35:35;;;;;;;;;;;;;;;10.12;93.61;92197.03;4975276;28;20288;-92
2020/12/10 11:38:01;;;;;;;;;;;;;;;10.16;93.47;92193.78;4975101;28;19926;-92
2020/12/10 11:40:29;;;;;;;;;;;;;;;10.22;94.08;92194.63;4974946;28;20435;-92
2020/12/10 11:42:55;;;;;;;;;;;;;;;10.27;93.12;92188.81;4975060;28;20288;-93
2020/12/10 11:45:21;;;;;;;;;;;;;;;10.31;92.38;92179.63;4977029;28;19926;-92
2020/12/10 11:47:48;;;;;;;;;;;;;;;10.33;91.51;92172.50;4976514;28;20021;-92
2020/12/10 11:50:19;;;;;;;;;;;;;;;10.29;90.98;92177.28;4975921;28;19922;-91
2020/12/10 11:52:46;;;;;;;;;;;;;;;10.15;90.54;92170.94;4976323;28;20273;-92
2020/12/10 11:55:12;;;;;;;;;;;;;;;10.13;91.14;92181.41;4990692;28;19978;-93
2020/12/10 11:57:39;;;;;;;;;;;;;;;10.08;90.95;92185.66;4994960;28;19925;-92
2020/12/10 12:00:05;;;;;;;;;;;;;;;10.03;91.86;92187.16;4994354;28;19922;-92
2020/12/10 12:02:31;;;;;;;;;;;;;;;9.85;90.93;92187.34;4994093;28;19925;-90
2020/12/10 12:04:58;;;;;;;;;;;;;;;9.88;91.27;92182.56;4994057;28;20007;-91
2020/12/10 12:07:24;;;;;;;;;;;;;;;9.87;91.23;92180.97;4994086;28;20016;-91
2020/12/10 12:09:50;;;;;;;;;;;;;;;9.87;90.78;92177.66;4993985;28;20281;-92
2020/12/10 12:12:16;;;;;;;;;;;;;;;9.83;89.84;92172.22;4991865;28;20384;-93
2020/12/10 12:14:43;;;;;;;;;;;;;;;9.86;90.17;92169.16;4993702;28;19960;-93
2020/12/10 12:17:09;;;;;;;;;;;;;;;9.94;90.26;92164.66;4993667;28;20396;-92
2020/12/10 12:19:36;;;;;;;;;;;;;;;9.98;89.59;92165.75;4993588;28;20353;-92
2020/12/10 12:22:02;;;;;;;;;;;;;;;10.01;89.73;92175.56;4992399;28;19926;-92
2020/12/10 12:24:28;;;;;;;;;;;;;;;9.97;88.96;92165.00;4973130;28;19929;-94
2020/12/10 12:26:54;;;;;;;;;;;;;;;10.06;89.33;92157.69;4986608;28;19956;-92
2020/12/10 12:29:20;;;;;;;;;;;;;;;10.01;88.94;92152.50;4993909;28;20025;-92
2020/12/10 12:31:47;;;;;;;;;;;;;;;10.08;89.13;92155.66;4978539;28;20324;-93
2020/12/10 12:34:15;;;;;;;;;;;;;;;10.11;88.12;92165.47;4971618;28;19945;-91
2020/12/10 12:36:41;;;;;;;;;;;;;;;10.14;87.86;92159.09;4974705;28;19922;-92
2020/12/10 12:39:13;;;;;;;;;;;;;;;10.20;88.74;92159.94;4974879;28;19922;-92
2020/12/10 12:41:39;;;;;;;;;;;;;;;10.14;87.07;92153.97;4974705;28;19937;-92
2020/12/10 12:44:05;;;;;;;;;;;;;;;10.06;87.29;92157.69;4974324;28;19928;-91
2020/12/10 12:46:31;;;;;;;;;;;;;;;10.00;86.32;92158.63;4973685;28;19929;-92
2020/12/10 12:48:58;;;;;;;;;;;;;;;9.94;86.82;92162.09;4973769;28;19929;-92
2020/12/10 12:51:25;;;;;;;;;;;;;;;9.82;87.93;92162.94;4973677;28;20308;-92
2020/12/10 12:53:52;;;;;;;;;;;;;;;9.83;87.21;92168.84;4974354;28;19928;-92
2020/12/10 12:56:19;;;;;;;;;;;;;;;9.86;87.83;92169.16;4973668;28;19922;-92